sensor_id;sensor_type;location;lat;lon;timestamp;temperature;humidity
67862;DHT22;54665;51.462;6.698;2023-03-14T00:00:58;12.37;74.93
67862;DHT22;54665;51.462;6.698;2023-03-14T00:03:24;12.49;74.45
67862;DHT22;54665;51.462;6.698;2023-03-14T00:05:49;12.45;74.43
67862;DHT22;54665;51.462;6.698;2023-03-14T00:08:14;12.53;74.11
67862;DHT22;54665;51.462;6.698;2023-03-14T00:10:40;12.39;74.25
67862;DHT22;54665;51.462;6.698;2023-03-14T00:13:06;12.61;73.93
67862;DHT22;54665;51.462;6.698;2023-03-14T00:15:34;12.44;74.52
67862;DHT22;54665;51.462;6.698;2023-03-14T00:18:00;12.45;74.74
67862;DHT22;54665;51.462;6.698;2023-03-14T00:20:26;12.39;75.03
67862;DHT22;54665;51.462;6.698;2023-03-14T00:22:51;12.39;74.86
67862;DHT22;54665;51.462;6.698;2023-03-14T00:25:17;12.51;74.44
67862;DHT22;54665;51.462;6.698;2023-03-14T00:27:43;12.51;74.60
67862;DHT22;54665;51.462;6.698;2023-03-14T00:30:09;12.48;74.82
67862;DHT22;54665;51.462;6.698;2023-03-14T00:32:35;12.49;75.23
67862;DHT22;54665;51.462;6.698;2023-03-14T00:35:01;12.37;76.31
67862;DHT22;54665;51.462;6.698;2023-03-14T00:37:27;12.24;77.87
67862;DHT22;54665;51.462;6.698;2023-03-14T00:39:52;12.00;79.75
67862;DHT22;54665;51.462;6.698;2023-03-14T00:42:18;11.69;81.38
67862;DHT22;54665;51.462;6.698;2023-03-14T00:44:43;11.60;81.42
67862;DHT22;54665;51.462;6.698;2023-03-14T00:47:09;11.57;81.39
67862;DHT22;54665;51.462;6.698;2023-03-14T00:49:34;11.36;81.58
67862;DHT22;54665;51.462;6.698;2023-03-14T00:52:00;11.36;82.01
67862;DHT22;54665;51.462;6.698;2023-03-14T00:54:25;11.30;82.41
67862;DHT22;54665;51.462;6.698;2023-03-14T00:56:51;11.28;82.36
67862;DHT22;54665;51.462;6.698;2023-03-14T00:59:16;11.36;82.27
67862;DHT22;54665;51.462;6.698;2023-03-14T01:01:43;11.29;81.85
67862;DHT22;54665;51.462;6.698;2023-03-14T01:04:08;11.28;81.70
67862;DHT22;54665;51.462;6.698;2023-03-14T01:06:34;11.20;81.50
67862;DHT22;54665;51.462;6.698;2023-03-14T01:08:59;11.16;81.57
67862;DHT22;54665;51.462;6.698;2023-03-14T01:11:31;11.01;81.00
67862;DHT22;54665;51.462;6.698;2023-03-14T01:13:57;11.08;81.11
67862;DHT22;54665;51.462;6.698;2023-03-14T01:16:25;11.20;80.72
67862;DHT22;54665;51.462;6.698;2023-03-14T01:18:51;11.11;80.85
67862;DHT22;54665;51.462;6.698;2023-03-14T01:21:20;11.18;80.04
67862;DHT22;54665;51.462;6.698;2023-03-14T01:23:47;11.11;79.96
67862;DHT22;54665;51.462;6.698;2023-03-14T01:26:15;11.16;79.78
67862;DHT22;54665;51.462;6.698;2023-03-14T01:28:41;11.16;79.80
67862;DHT22;54665;51.462;6.698;2023-03-14T01:31:09;11.08;79.83
67862;DHT22;54665;51.462;6.698;2023-03-14T01:33:35;11.25;79.60
67862;DHT22;54665;51.462;6.698;2023-03-14T01:36:01;11.11;79.37
67862;DHT22;54665;51.462;6.698;2023-03-14T01:38:31;10.97;80.42
67862;DHT22;54665;51.462;6.698;2023-03-14T01:40:57;10.84;80.74
67862;DHT22;54665;51.462;6.698;2023-03-14T01:43:23;10.88;80.56
67862;DHT22;54665;51.462;6.698;2023-03-14T01:46:23;10.78;80.97
67862;DHT22;54665;51.462;6.698;2023-03-14T01:48:58;10.65;80.83
67862;DHT22;54665;51.462;6.698;2023-03-14T01:54:36;10.46;81.35
67862;DHT22;54665;51.462;6.698;2023-03-14T01:59:53;10.47;81.39
67862;DHT22;54665;51.462;6.698;2023-03-14T02:02:20;10.58;81.18
67862;DHT22;54665;51.462;6.698;2023-03-14T02:04:46;10.61;81.15
67862;DHT22;54665;51.462;6.698;2023-03-14T02:07:20;10.72;80.86
67862;DHT22;54665;51.462;6.698;2023-03-14T02:09:58;10.77;80.35
67862;DHT22;54665;51.462;6.698;2023-03-14T02:12:29;10.77;80.02
67862;DHT22;54665;51.462;6.698;2023-03-14T02:15:15;10.91;79.59
67862;DHT22;54665;51.462;6.698;2023-03-14T02:18:02;11.04;79.16
67862;DHT22;54665;51.462;6.698;2023-03-14T02:27:13;11.01;79.31
67862;DHT22;54665;51.462;6.698;2023-03-14T02:30:08;11.02;78.99
67862;DHT22;54665;51.462;6.698;2023-03-14T02:32:36;11.11;79.16
67862;DHT22;54665;51.462;6.698;2023-03-14T02:35:11;10.94;79.57
67862;DHT22;54665;51.462;6.698;2023-03-14T02:37:50;10.84;79.86
67862;DHT22;54665;51.462;6.698;2023-03-14T02:40:17;10.78;80.16
67862;DHT22;54665;51.462;6.698;2023-03-14T02:42:44;10.81;80.19
67862;DHT22;54665;51.462;6.698;2023-03-14T02:47:43;10.81;80.52
67862;DHT22;54665;51.462;6.698;2023-03-14T02:50:13;10.89;80.58
67862;DHT22;54665;51.462;6.698;2023-03-14T02:52:39;10.78;80.58
67862;DHT22;54665;51.462;6.698;2023-03-14T02:55:06;10.92;80.25
67862;DHT22;54665;51.462;6.698;2023-03-14T02:57:33;11.01;80.17
67862;DHT22;54665;51.462;6.698;2023-03-14T03:00:00;11.05;80.07
67862;DHT22;54665;51.462;6.698;2023-03-14T03:02:27;11.11;79.82
67862;DHT22;54665;51.462;6.698;2023-03-14T03:04:52;11.14;79.67
67862;DHT22;54665;51.462;6.698;2023-03-14T03:07:19;11.19;79.51
67862;DHT22;54665;51.462;6.698;2023-03-14T03:09:45;10.94;80.17
67862;DHT22;54665;51.462;6.698;2023-03-14T03:12:10;10.99;80.05
67862;DHT22;54665;51.462;6.698;2023-03-14T03:14:36;10.94;80.02
67862;DHT22;54665;51.462;6.698;2023-03-14T03:17:04;10.85;80.61
67862;DHT22;54665;51.462;6.698;2023-03-14T03:19:31;10.91;80.30
67862;DHT22;54665;51.462;6.698;2023-03-14T03:21:56;11.01;79.90
67862;DHT22;54665;51.462;6.698;2023-03-14T03:24:23;11.05;79.98
67862;DHT22;54665;51.462;6.698;2023-03-14T03:26:48;10.98;79.90
67862;DHT22;54665;51.462;6.698;2023-03-14T03:29:14;11.08;79.63
67862;DHT22;54665;51.462;6.698;2023-03-14T03:31:40;11.05;79.52
67862;DHT22;54665;51.462;6.698;2023-03-14T03:34:05;11.07;79.34
67862;DHT22;54665;51.462;6.698;2023-03-14T03:36:30;10.97;79.64
67862;DHT22;54665;51.462;6.698;2023-03-14T03:38:58;10.97;80.81
67862;DHT22;54665;51.462;6.698;2023-03-14T03:41:23;10.88;80.63
67862;DHT22;54665;51.462;6.698;2023-03-14T03:43:49;10.95;80.35
67862;DHT22;54665;51.462;6.698;2023-03-14T03:46:16;10.85;80.79
67862;DHT22;54665;51.462;6.698;2023-03-14T03:48:41;10.82;81.35
67862;DHT22;54665;51.462;6.698;2023-03-14T03:51:07;10.82;81.71
67862;DHT22;54665;51.462;6.698;2023-03-14T03:53:33;10.79;82.04
67862;DHT22;54665;51.462;6.698;2023-03-14T03:56:02;10.69;82.40
67862;DHT22;54665;51.462;6.698;2023-03-14T03:58:28;10.72;82.19
67862;DHT22;54665;51.462;6.698;2023-03-14T04:00:55;10.79;82.05
67862;DHT22;54665;51.462;6.698;2023-03-14T04:03:20;10.88;81.81
67862;DHT22;54665;51.462;6.698;2023-03-14T04:05:46;10.91;81.44
67862;DHT22;54665;51.462;6.698;2023-03-14T04:08:12;10.88;81.70
67862;DHT22;54665;51.462;6.698;2023-03-14T04:10:37;10.81;81.75
67862;DHT22;54665;51.462;6.698;2023-03-14T04:13:12;10.77;81.90
67862;DHT22;54665;51.462;6.698;2023-03-14T04:15:39;10.89;81.96
67862;DHT22;54665;51.462;6.698;2023-03-14T04:18:14;10.71;82.88
67862;DHT22;54665;51.462;6.698;2023-03-14T04:20:41;10.50;84.61
67862;DHT22;54665;51.462;6.698;2023-03-14T04:23:06;10.46;84.99
67862;DHT22;54665;51.462;6.698;2023-03-14T04:25:32;10.51;84.97
67862;DHT22;54665;51.462;6.698;2023-03-14T04:27:59;10.36;85.00
67862;DHT22;54665;51.462;6.698;2023-03-14T04:30:27;10.33;85.18
67862;DHT22;54665;51.462;6.698;2023-03-14T04:32:57;10.17;85.71
67862;DHT22;54665;51.462;6.698;2023-03-14T04:35:24;10.20;85.76
67862;DHT22;54665;51.462;6.698;2023-03-14T04:37:53;10.21;85.88
67862;DHT22;54665;51.462;6.698;2023-03-14T04:40:20;10.05;86.09
67862;DHT22;54665;51.462;6.698;2023-03-14T04:42:48;9.99;86.20
67862;DHT22;54665;51.462;6.698;2023-03-14T04:45:14;9.92;86.78
67862;DHT22;54665;51.462;6.698;2023-03-14T04:47:41;9.99;86.88
67862;DHT22;54665;51.462;6.698;2023-03-14T04:50:09;9.81;87.01
67862;DHT22;54665;51.462;6.698;2023-03-14T04:52:35;9.87;87.35
67862;DHT22;54665;51.462;6.698;2023-03-14T04:55:01;9.85;87.30
67862;DHT22;54665;51.462;6.698;2023-03-14T04:57:27;9.76;87.51
67862;DHT22;54665;51.462;6.698;2023-03-14T04:59:53;9.71;87.65
67862;DHT22;54665;51.462;6.698;2023-03-14T05:02:37;9.75;88.19
67862;DHT22;54665;51.462;6.698;2023-03-14T05:05:10;9.56;87.93
67862;DHT22;54665;51.462;6.698;2023-03-14T05:07:54;9.65;88.29
67862;DHT22;54665;51.462;6.698;2023-03-14T05:10:52;9.74;88.37
67862;DHT22;54665;51.462;6.698;2023-03-14T05:13:38;9.51;88.81
67862;DHT22;54665;51.462;6.698;2023-03-14T05:16:23;9.72;88.65
67862;DHT22;54665;51.462;6.698;2023-03-14T05:19:12;9.87;88.91
67862;DHT22;54665;51.462;6.698;2023-03-14T05:21:56;9.82;88.76
67862;DHT22;54665;51.462;6.698;2023-03-14T05:24:33;9.78;88.70
67862;DHT22;54665;51.462;6.698;2023-03-14T05:27:13;9.83;88.92
67862;DHT22;54665;51.462;6.698;2023-03-14T05:30:02;9.79;88.91
67862;DHT22;54665;51.462;6.698;2023-03-14T05:33:06;9.74;88.72
67862;DHT22;54665;51.462;6.698;2023-03-14T05:35:41;9.63;89.47
67862;DHT22;54665;51.462;6.698;2023-03-14T05:38:17;9.75;89.40
67862;DHT22;54665;51.462;6.698;2023-03-14T05:41:01;9.75;88.63
67862;DHT22;54665;51.462;6.698;2023-03-14T05:43:52;9.81;88.97
67862;DHT22;54665;51.462;6.698;2023-03-14T05:46:39;9.87;88.99
67862;DHT22;54665;51.462;6.698;2023-03-14T05:49:27;9.81;89.45
67862;DHT22;54665;51.462;6.698;2023-03-14T05:52:27;9.85;89.14
67862;DHT22;54665;51.462;6.698;2023-03-14T05:55:04;9.69;89.82
67862;DHT22;54665;51.462;6.698;2023-03-14T05:57:42;9.78;90.15
67862;DHT22;54665;51.462;6.698;2023-03-14T06:00:18;9.93;89.14
67862;DHT22;54665;51.462;6.698;2023-03-14T06:02:57;9.99;89.06
67862;DHT22;54665;51.462;6.698;2023-03-14T06:05:28;9.78;89.87
67862;DHT22;54665;51.462;6.698;2023-03-14T06:07:58;9.89;89.63
67862;DHT22;54665;51.462;6.698;2023-03-14T06:10:25;9.92;90.02
67862;DHT22;54665;51.462;6.698;2023-03-14T06:12:51;10.00;89.61
67862;DHT22;54665;51.462;6.698;2023-03-14T06:15:16;10.03;89.59
67862;DHT22;54665;51.462;6.698;2023-03-14T06:17:45;9.89;90.04
67862;DHT22;54665;51.462;6.698;2023-03-14T06:20:12;10.09;89.99
67862;DHT22;54665;51.462;6.698;2023-03-14T06:22:39;9.92;90.07
67862;DHT22;54665;51.462;6.698;2023-03-14T06:25:06;10.12;89.57
67862;DHT22;54665;51.462;6.698;2023-03-14T06:27:32;10.20;89.28
67862;DHT22;54665;51.462;6.698;2023-03-14T06:29:58;10.24;88.90
67862;DHT22;54665;51.462;6.698;2023-03-14T06:32:24;10.26;89.08
67862;DHT22;54665;51.462;6.698;2023-03-14T06:34:53;10.32;89.29
67862;DHT22;54665;51.462;6.698;2023-03-14T06:37:18;10.26;89.26
67862;DHT22;54665;51.462;6.698;2023-03-14T06:39:45;10.41;89.34
67862;DHT22;54665;51.462;6.698;2023-03-14T06:42:19;10.32;89.26
67862;DHT22;54665;51.462;6.698;2023-03-14T06:44:45;10.46;89.02
67862;DHT22;54665;51.462;6.698;2023-03-14T06:47:11;10.32;89.06
67862;DHT22;54665;51.462;6.698;2023-03-14T06:49:40;10.41;89.12
67862;DHT22;54665;51.462;6.698;2023-03-14T06:52:06;10.48;88.66
67862;DHT22;54665;51.462;6.698;2023-03-14T06:54:32;10.54;88.92
67862;DHT22;54665;51.462;6.698;2023-03-14T06:56:57;10.91;88.47
67862;DHT22;54665;51.462;6.698;2023-03-14T06:59:23;10.53;88.88
67862;DHT22;54665;51.462;6.698;2023-03-14T07:01:48;10.60;88.97
67862;DHT22;54665;51.462;6.698;2023-03-14T07:04:16;10.56;89.10
67862;DHT22;54665;51.462;6.698;2023-03-14T07:06:47;10.69;88.81
67862;DHT22;54665;51.462;6.698;2023-03-14T07:09:14;10.38;89.49
67862;DHT22;54665;51.462;6.698;2023-03-14T07:11:45;10.69;88.77
67862;DHT22;54665;51.462;6.698;2023-03-14T07:14:11;10.57;89.02
67862;DHT22;54665;51.462;6.698;2023-03-14T07:16:37;10.71;88.68
67862;DHT22;54665;51.462;6.698;2023-03-14T07:19:03;10.71;88.55
67862;DHT22;54665;51.462;6.698;2023-03-14T07:21:30;10.63;88.46
67862;DHT22;54665;51.462;6.698;2023-03-14T07:23:57;10.78;88.14
67862;DHT22;54665;51.462;6.698;2023-03-14T07:26:22;10.78;87.97
67862;DHT22;54665;51.462;6.698;2023-03-14T07:28:50;10.87;87.98
67862;DHT22;54665;51.462;6.698;2023-03-14T07:31:18;10.89;87.61
67862;DHT22;54665;51.462;6.698;2023-03-14T07:33:43;10.85;88.20
67862;DHT22;54665;51.462;6.698;2023-03-14T07:36:10;10.82;88.56
67862;DHT22;54665;51.462;6.698;2023-03-14T07:38:37;10.91;87.97
67862;DHT22;54665;51.462;6.698;2023-03-14T07:41:21;11.04;88.41
67862;DHT22;54665;51.462;6.698;2023-03-14T07:44:08;11.04;88.15
67862;DHT22;54665;51.462;6.698;2023-03-14T07:46:33;11.09;88.43
67862;DHT22;54665;51.462;6.698;2023-03-14T07:48:59;11.04;87.98
67862;DHT22;54665;51.462;6.698;2023-03-14T07:51:24;11.15;88.71
67862;DHT22;54665;51.462;6.698;2023-03-14T07:53:49;11.11;88.78
67862;DHT22;54665;51.462;6.698;2023-03-14T07:56:15;11.11;87.94
67862;DHT22;54665;51.462;6.698;2023-03-14T07:58:40;11.08;88.02
67862;DHT22;54665;51.462;6.698;2023-03-14T08:01:05;11.32;87.72
67862;DHT22;54665;51.462;6.698;2023-03-14T08:03:31;11.40;87.40
67862;DHT22;54665;51.462;6.698;2023-03-14T08:05:56;11.67;87.45
67862;DHT22;54665;51.462;6.698;2023-03-14T08:08:21;11.69;86.84
67862;DHT22;54665;51.462;6.698;2023-03-14T08:10:47;11.69;86.48
67862;DHT22;54665;51.462;6.698;2023-03-14T08:13:13;11.83;86.37
67862;DHT22;54665;51.462;6.698;2023-03-14T08:15:38;12.00;86.05
67862;DHT22;54665;51.462;6.698;2023-03-14T08:18:04;12.02;85.74
67862;DHT22;54665;51.462;6.698;2023-03-14T08:20:30;12.01;84.98
67862;DHT22;54665;51.462;6.698;2023-03-14T08:22:57;12.38;85.06
67862;DHT22;54665;51.462;6.698;2023-03-14T08:25:23;11.98;84.63
67862;DHT22;54665;51.462;6.698;2023-03-14T08:27:49;12.04;85.64
67862;DHT22;54665;51.462;6.698;2023-03-14T08:32:41;12.05;85.84
67862;DHT22;54665;51.462;6.698;2023-03-14T08:35:08;12.05;85.79
67862;DHT22;54665;51.462;6.698;2023-03-14T08:37:34;11.67;87.24
67862;DHT22;54665;51.462;6.698;2023-03-14T08:40:00;11.71;86.48
67862;DHT22;54665;51.462;6.698;2023-03-14T08:42:26;11.53;87.69
67862;DHT22;54665;51.462;6.698;2023-03-14T08:44:52;11.26;88.21
67862;DHT22;54665;51.462;6.698;2023-03-14T08:47:18;11.07;88.42
67862;DHT22;54665;51.462;6.698;2023-03-14T08:49:43;11.15;88.90
67862;DHT22;54665;51.462;6.698;2023-03-14T08:52:09;11.14;87.99
67862;DHT22;54665;51.462;6.698;2023-03-14T08:54:34;11.26;87.64
67862;DHT22;54665;51.462;6.698;2023-03-14T08:57:00;11.04;87.61
67862;DHT22;54665;51.462;6.698;2023-03-14T08:59:25;11.23;87.19
67862;DHT22;54665;51.462;6.698;2023-03-14T09:01:51;11.07;87.80
67862;DHT22;54665;51.462;6.698;2023-03-14T09:04:17;10.56;86.72
67862;DHT22;54665;51.462;6.698;2023-03-14T09:06:43;9.49;85.50
67862;DHT22;54665;51.462;6.698;2023-03-14T09:09:08;9.27;86.14
67862;DHT22;54665;51.462;6.698;2023-03-14T09:11:34;9.37;86.42
67862;DHT22;54665;51.462;6.698;2023-03-14T09:13:59;9.38;86.48
67862;DHT22;54665;51.462;6.698;2023-03-14T09:16:25;9.63;86.54
67862;DHT22;54665;51.462;6.698;2023-03-14T09:18:50;9.37;86.62
67862;DHT22;54665;51.462;6.698;2023-03-14T09:21:20;9.66;86.74
67862;DHT22;54665;51.462;6.698;2023-03-14T09:23:45;9.45;85.97
67862;DHT22;54665;51.462;6.698;2023-03-14T09:26:11;9.32;86.38
67862;DHT22;54665;51.462;6.698;2023-03-14T09:28:36;9.07;86.05
67862;DHT22;54665;51.462;6.698;2023-03-14T09:31:09;8.84;85.93
67862;DHT22;54665;51.462;6.698;2023-03-14T09:33:35;9.03;86.50
67862;DHT22;54665;51.462;6.698;2023-03-14T09:36:01;9.17;85.73
67862;DHT22;54665;51.462;6.698;2023-03-14T09:38:27;9.24;86.10
67862;DHT22;54665;51.462;6.698;2023-03-14T09:40:53;9.05;86.38
67862;DHT22;54665;51.462;6.698;2023-03-14T09:43:21;9.03;86.77
67862;DHT22;54665;51.462;6.698;2023-03-14T09:45:48;8.96;87.14
67862;DHT22;54665;51.462;6.698;2023-03-14T09:48:23;8.86;87.96
67862;DHT22;54665;51.462;6.698;2023-03-14T09:50:53;8.70;88.27
67862;DHT22;54665;51.462;6.698;2023-03-14T09:53:46;8.80;88.77
67862;DHT22;54665;51.462;6.698;2023-03-14T09:56:15;8.73;88.61
67862;DHT22;54665;51.462;6.698;2023-03-14T09:58:45;8.84;87.73
67862;DHT22;54665;51.462;6.698;2023-03-14T10:01:15;8.57;88.12
67862;DHT22;54665;51.462;6.698;2023-03-14T10:03:42;8.53;88.09
67862;DHT22;54665;51.462;6.698;2023-03-14T10:06:14;8.70;88.26
67862;DHT22;54665;51.462;6.698;2023-03-14T10:08:44;8.73;87.56
67862;DHT22;54665;51.462;6.698;2023-03-14T10:11:19;8.80;87.21
67862;DHT22;54665;51.462;6.698;2023-03-14T10:13:49;8.86;86.66
67862;DHT22;54665;51.462;6.698;2023-03-14T10:16:15;8.83;86.36
67862;DHT22;54665;51.462;6.698;2023-03-14T10:18:44;8.66;87.00
67862;DHT22;54665;51.462;6.698;2023-03-14T10:21:28;8.59;87.61
67862;DHT22;54665;51.462;6.698;2023-03-14T10:23:54;8.26;88.54
67862;DHT22;54665;51.462;6.698;2023-03-14T10:26:37;7.97;88.30
67862;DHT22;54665;51.462;6.698;2023-03-14T10:29:09;7.99;87.81
67862;DHT22;54665;51.462;6.698;2023-03-14T10:34:17;7.95;87.40
67862;DHT22;54665;51.462;6.698;2023-03-14T10:36:43;7.69;86.37
67862;DHT22;54665;51.462;6.698;2023-03-14T10:41:50;6.95;86.01
67862;DHT22;54665;51.462;6.698;2023-03-14T10:44:20;6.93;86.45
67862;DHT22;54665;51.462;6.698;2023-03-14T10:46:56;6.96;86.20
67862;DHT22;54665;51.462;6.698;2023-03-14T10:49:36;7.06;85.12
67862;DHT22;54665;51.462;6.698;2023-03-14T10:52:24;7.23;83.75
67862;DHT22;54665;51.462;6.698;2023-03-14T10:55:10;7.50;82.10
67862;DHT22;54665;51.462;6.698;2023-03-14T10:57:41;7.87;82.07
67862;DHT22;54665;51.462;6.698;2023-03-14T11:00:18;8.08;80.80
67862;DHT22;54665;51.462;6.698;2023-03-14T11:02:57;8.20;79.73
67862;DHT22;54665;51.462;6.698;2023-03-14T11:05:43;8.41;79.94
67862;DHT22;54665;51.462;6.698;2023-03-14T11:08:25;8.57;79.89
67862;DHT22;54665;51.462;6.698;2023-03-14T11:11:10;8.29;79.30
67862;DHT22;54665;51.462;6.698;2023-03-14T11:14:03;8.33;79.91
67862;DHT22;54665;51.462;6.698;2023-03-14T11:16:59;8.18;77.80
67862;DHT22;54665;51.462;6.698;2023-03-14T11:19:38;7.92;79.66
67862;DHT22;54665;51.462;6.698;2023-03-14T11:22:27;7.90;77.74
67862;DHT22;54665;51.462;6.698;2023-03-14T11:27:34;8.15;77.07
67862;DHT22;54665;51.462;6.698;2023-03-14T11:35:54;7.71;78.84
67862;DHT22;54665;51.462;6.698;2023-03-14T11:38:29;7.67;79.15
67862;DHT22;54665;51.462;6.698;2023-03-14T11:40:57;7.30;79.34
67862;DHT22;54665;51.462;6.698;2023-03-14T11:43:28;7.47;80.61
67862;DHT22;54665;51.462;6.698;2023-03-14T11:46:19;7.49;79.31
67862;DHT22;54665;51.462;6.698;2023-03-14T11:51:29;7.40;79.46
67862;DHT22;54665;51.462;6.698;2023-03-14T11:54:22;7.98;78.40
67862;DHT22;54665;51.462;6.698;2023-03-14T11:57:01;8.12;76.79
67862;DHT22;54665;51.462;6.698;2023-03-14T11:59:33;9.14;75.30
67862;DHT22;54665;51.462;6.698;2023-03-14T12:02:17;9.05;74.47
67862;DHT22;54665;51.462;6.698;2023-03-14T12:04:54;9.61;74.01
67862;DHT22;54665;51.462;6.698;2023-03-14T12:07:23;8.97;72.42
67862;DHT22;54665;51.462;6.698;2023-03-14T12:09:53;9.18;71.87
67862;DHT22;54665;51.462;6.698;2023-03-14T12:12:22;9.38;71.02
67862;DHT22;54665;51.462;6.698;2023-03-14T12:15:02;9.13;69.61
67862;DHT22;54665;51.462;6.698;2023-03-14T12:17:41;8.60;69.92
67862;DHT22;54665;51.462;6.698;2023-03-14T12:22:46;8.01;72.91
67862;DHT22;54665;51.462;6.698;2023-03-14T12:25:20;8.15;74.43
67862;DHT22;54665;51.462;6.698;2023-03-14T12:28:03;7.67;74.02
67862;DHT22;54665;51.462;6.698;2023-03-14T12:30:40;8.02;72.90
67862;DHT22;54665;51.462;6.698;2023-03-14T12:35:43;8.18;72.63
67862;DHT22;54665;51.462;6.698;2023-03-14T12:38:30;7.91;73.33
67862;DHT22;54665;51.462;6.698;2023-03-14T12:41:04;8.11;73.78
67862;DHT22;54665;51.462;6.698;2023-03-14T12:43:34;8.22;73.26
67862;DHT22;54665;51.462;6.698;2023-03-14T12:46:21;7.97;72.31
67862;DHT22;54665;51.462;6.698;2023-03-14T12:51:33;8.52;72.55
67862;DHT22;54665;51.462;6.698;2023-03-14T13:02:13;8.32;72.45
67862;DHT22;54665;51.462;6.698;2023-03-14T13:05:02;7.15;72.92
67862;DHT22;54665;51.462;6.698;2023-03-14T13:08:02;6.77;74.30
67862;DHT22;54665;51.462;6.698;2023-03-14T13:10:25;6.60;75.85
67862;DHT22;54665;51.462;6.698;2023-03-14T13:15:40;6.91;75.68
67862;DHT22;54665;51.462;6.698;2023-03-14T13:18:18;6.88;75.76
67862;DHT22;54665;51.462;6.698;2023-03-14T13:20:55;7.22;75.97
67862;DHT22;54665;51.462;6.698;2023-03-14T13:23:24;7.39;75.33
67862;DHT22;54665;51.462;6.698;2023-03-14T13:25:51;7.12;75.47
67862;DHT22;54665;51.462;6.698;2023-03-14T13:28:17;7.53;76.52
67862;DHT22;54665;51.462;6.698;2023-03-14T13:30:47;7.50;74.69
67862;DHT22;54665;51.462;6.698;2023-03-14T13:33:16;7.57;74.52
67862;DHT22;54665;51.462;6.698;2023-03-14T13:35:44;7.88;74.11
67862;DHT22;54665;51.462;6.698;2023-03-14T13:38:27;8.62;74.33
67862;DHT22;54665;51.462;6.698;2023-03-14T13:40:56;8.55;72.02
67862;DHT22;54665;51.462;6.698;2023-03-14T13:43:30;8.97;73.01
67862;DHT22;54665;51.462;6.698;2023-03-14T13:48:30;8.93;71.36
67862;DHT22;54665;51.462;6.698;2023-03-14T13:51:06;9.15;70.11
67862;DHT22;54665;51.462;6.698;2023-03-14T13:53:41;9.30;69.50
67862;DHT22;54665;51.462;6.698;2023-03-14T13:56:09;9.81;68.23
67862;DHT22;54665;51.462;6.698;2023-03-14T13:58:37;9.92;66.63
67862;DHT22;54665;51.462;6.698;2023-03-14T14:01:05;9.69;59.08
67862;DHT22;54665;51.462;6.698;2023-03-14T14:03:34;9.75;57.11
67862;DHT22;54665;51.462;6.698;2023-03-14T14:06:01;9.79;55.86
67862;DHT22;54665;51.462;6.698;2023-03-14T14:08:26;9.35;53.25
67862;DHT22;54665;51.462;6.698;2023-03-14T14:10:57;9.27;55.13
67862;DHT22;54665;51.462;6.698;2023-03-14T14:13:24;9.27;54.13
67862;DHT22;54665;51.462;6.698;2023-03-14T14:15:52;9.27;54.41
67862;DHT22;54665;51.462;6.698;2023-03-14T14:18:21;9.14;54.64
67862;DHT22;54665;51.462;6.698;2023-03-14T14:20:49;9.17;54.28
67862;DHT22;54665;51.462;6.698;2023-03-14T14:23:21;9.34;54.17
67862;DHT22;54665;51.462;6.698;2023-03-14T14:25:51;9.30;52.79
67862;DHT22;54665;51.462;6.698;2023-03-14T14:28:30;8.76;52.15
67862;DHT22;54665;51.462;6.698;2023-03-14T14:31:03;9.14;53.75
67862;DHT22;54665;51.462;6.698;2023-03-14T14:33:28;9.17;53.85
67862;DHT22;54665;51.462;6.698;2023-03-14T14:35:56;9.34;51.03
67862;DHT22;54665;51.462;6.698;2023-03-14T14:38:22;9.05;51.90
67862;DHT22;54665;51.462;6.698;2023-03-14T14:40:51;9.25;52.43
67862;DHT22;54665;51.462;6.698;2023-03-14T14:43:24;9.11;53.76
67862;DHT22;54665;51.462;6.698;2023-03-14T14:45:53;8.96;53.78
67862;DHT22;54665;51.462;6.698;2023-03-14T14:48:21;9.07;53.85
67862;DHT22;54665;51.462;6.698;2023-03-14T14:53:22;8.97;51.71
67862;DHT22;54665;51.462;6.698;2023-03-14T14:55:54;9.00;51.59
67862;DHT22;54665;51.462;6.698;2023-03-14T14:58:34;8.90;52.52
67862;DHT22;54665;51.462;6.698;2023-03-14T15:01:15;8.84;53.07
67862;DHT22;54665;51.462;6.698;2023-03-14T15:03:43;8.93;53.77
67862;DHT22;54665;51.462;6.698;2023-03-14T15:06:10;8.69;54.55
67862;DHT22;54665;51.462;6.698;2023-03-14T15:08:37;8.63;54.80
67862;DHT22;54665;51.462;6.698;2023-03-14T15:11:02;8.57;53.16
67862;DHT22;54665;51.462;6.698;2023-03-14T15:13:28;8.66;54.08
67862;DHT22;54665;51.462;6.698;2023-03-14T15:15:54;8.25;51.07
67862;DHT22;54665;51.462;6.698;2023-03-14T15:18:24;8.52;51.21
67862;DHT22;54665;51.462;6.698;2023-03-14T15:20:50;8.50;50.79
67862;DHT22;54665;51.462;6.698;2023-03-14T15:23:21;8.41;51.53
67862;DHT22;54665;51.462;6.698;2023-03-14T15:25:46;8.49;52.05
67862;DHT22;54665;51.462;6.698;2023-03-14T15:28:24;8.42;51.62
67862;DHT22;54665;51.462;6.698;2023-03-14T15:30:52;8.31;50.76
67862;DHT22;54665;51.462;6.698;2023-03-14T15:33:18;8.35;52.58
67862;DHT22;54665;51.462;6.698;2023-03-14T15:35:44;8.42;53.17
67862;DHT22;54665;51.462;6.698;2023-03-14T15:38:14;8.57;51.84
67862;DHT22;54665;51.462;6.698;2023-03-14T15:40:40;8.57;52.95
67862;DHT22;54665;51.462;6.698;2023-03-14T15:43:06;8.09;52.39
67862;DHT22;54665;51.462;6.698;2023-03-14T15:45:32;8.16;51.69
67862;DHT22;54665;51.462;6.698;2023-03-14T15:47:57;8.32;53.90
67862;DHT22;54665;51.462;6.698;2023-03-14T15:50:23;8.33;53.56
67862;DHT22;54665;51.462;6.698;2023-03-14T15:52:50;8.31;53.46
67862;DHT22;54665;51.462;6.698;2023-03-14T15:55:16;8.43;53.15
67862;DHT22;54665;51.462;6.698;2023-03-14T15:57:43;8.42;52.51
67862;DHT22;54665;51.462;6.698;2023-03-14T16:00:17;8.49;51.38
67862;DHT22;54665;51.462;6.698;2023-03-14T16:02:43;8.49;50.79
67862;DHT22;54665;51.462;6.698;2023-03-14T16:05:11;8.42;50.96
67862;DHT22;54665;51.462;6.698;2023-03-14T16:07:37;8.43;51.36
67862;DHT22;54665;51.462;6.698;2023-03-14T16:10:04;8.32;52.05
67862;DHT22;54665;51.462;6.698;2023-03-14T16:12:30;8.01;51.37
67862;DHT22;54665;51.462;6.698;2023-03-14T16:14:56;8.06;52.49
67862;DHT22;54665;51.462;6.698;2023-03-14T16:17:21;8.01;52.36
67862;DHT22;54665;51.462;6.698;2023-03-14T16:19:47;8.04;52.33
67862;DHT22;54665;51.462;6.698;2023-03-14T16:22:12;7.90;53.44
67862;DHT22;54665;51.462;6.698;2023-03-14T16:24:38;7.71;53.54
67862;DHT22;54665;51.462;6.698;2023-03-14T16:27:03;7.84;53.99
67862;DHT22;54665;51.462;6.698;2023-03-14T16:29:29;7.84;53.96
67862;DHT22;54665;51.462;6.698;2023-03-14T16:31:55;7.90;54.55
67862;DHT22;54665;51.462;6.698;2023-03-14T16:34:21;7.60;54.28
67862;DHT22;54665;51.462;6.698;2023-03-14T16:36:46;7.70;54.53
67862;DHT22;54665;51.462;6.698;2023-03-14T16:39:12;7.74;53.37
67862;DHT22;54665;51.462;6.698;2023-03-14T16:41:37;7.51;51.98
67862;DHT22;54665;51.462;6.698;2023-03-14T16:44:03;7.64;52.00
67862;DHT22;54665;51.462;6.698;2023-03-14T16:46:29;7.71;53.05
67862;DHT22;54665;51.462;6.698;2023-03-14T16:48:55;7.49;51.80
67862;DHT22;54665;51.462;6.698;2023-03-14T16:51:21;7.39;51.35
67862;DHT22;54665;51.462;6.698;2023-03-14T16:53:48;7.50;52.91
67862;DHT22;54665;51.462;6.698;2023-03-14T16:56:14;7.43;55.89